Terminal Aerodrome Forecast
Issued by NWS El Paso, TX

Home | Current Version | Previous Version | Text Only | Print | Product List | Glossary On
Versions: 1 2 3 4 5 6 7 8 9 10 11 12 13 14 15 16
000
FTUS44 KEPZ 042331
TAFELP
TAF
KELP 042331Z 0500/0524 27005KT P6SM FEW100 SCT250
     FM050300 VRB06KT P6SM FEW120 FEW250
     FM051700 31005KT P6SM FEW100 SCT250=

USA.gov is the U.S. government's official web portal to all federal, state and local government web resources and services.